createdAt,value
2019-02-27T00:00:43.966Z,13.40
2019-02-27T00:02:44.806Z,13.70
2019-02-27T00:04:45.741Z,14.60
2019-02-27T00:06:47.897Z,14.43
2019-02-27T00:08:49.352Z,15.03
2019-02-27T00:10:50.472Z,14.20
2019-02-27T00:12:52.462Z,13.77
2019-02-27T00:14:53.473Z,14.80
2019-02-27T00:16:54.293Z,14.10
2019-02-27T00:18:58.559Z,13.40
2019-02-27T00:20:57.900Z,13.60
2019-02-27T00:22:58.753Z,14.33
2019-02-27T00:25:03.009Z,15.00
2019-02-27T00:27:02.638Z,14.87
2019-02-27T00:29:03.798Z,14.87
2019-02-27T00:31:04.632Z,15.37
2019-02-27T00:33:05.484Z,15.90
2019-02-27T00:35:07.356Z,15.00
2019-02-27T00:37:08.677Z,14.67
2019-02-27T00:39:09.517Z,15.43
2019-02-27T00:41:12.815Z,15.87
2019-02-27T00:43:13.160Z,15.47
2019-02-27T00:45:14.005Z,15.63
2019-02-27T00:47:19.721Z,16.07
2019-02-27T00:49:17.602Z,15.67
2019-02-27T00:51:18.473Z,14.97
2019-02-27T00:53:19.304Z,15.53
2019-02-27T00:55:20.140Z,15.03
2019-02-27T00:57:21.428Z,15.73
2019-02-27T00:59:22.324Z,15.57
2019-02-27T01:01:23.156Z,14.77
2019-02-27T01:03:26.276Z,14.77
2019-02-27T01:05:26.769Z,14.27
2019-02-27T01:07:27.692Z,13.57
2019-02-27T01:09:28.557Z,13.17
2019-02-27T01:11:29.409Z,12.83
2019-02-27T01:13:31.259Z,12.43
2019-02-27T01:15:32.728Z,12.17
2019-02-27T01:17:33.573Z,13.00
2019-02-27T01:19:38.463Z,13.37
2019-02-27T01:21:37.520Z,12.00
2019-02-27T01:23:38.372Z,12.67
2019-02-27T01:25:39.232Z,12.00
2019-02-27T01:27:40.057Z,12.03
2019-02-27T01:29:41.180Z,11.73
2019-02-27T01:31:42.029Z,12.53
2019-02-27T01:33:42.862Z,13.00
2019-02-27T01:35:43.721Z,13.10
2019-02-27T01:37:44.845Z,11.63
2019-02-27T01:39:45.682Z,12.60
2019-02-27T01:41:46.526Z,11.87
2019-02-27T01:43:47.640Z,11.77
2019-02-27T01:45:48.487Z,11.70
2019-02-27T01:47:49.320Z,11.83
2019-02-27T01:49:50.144Z,12.07
2019-02-27T01:51:51.004Z,11.90
2019-02-27T01:53:51.856Z,11.30
2019-02-27T01:55:56.185Z,12.10
2019-02-27T01:57:55.419Z,12.20
2019-02-27T01:59:56.273Z,12.47
2019-02-27T02:01:57.129Z,11.87
2019-02-27T02:03:58.020Z,11.97
2019-02-27T02:05:59.772Z,11.70
2019-02-27T02:08:00.980Z,12.10
2019-02-27T02:10:01.819Z,11.10
2019-02-27T02:12:02.653Z,11.70
2019-02-27T02:14:03.510Z,11.83
2019-02-27T02:16:04.464Z,11.97
2019-02-27T02:18:05.572Z,12.33
2019-02-27T02:20:06.429Z,11.47
2019-02-27T02:22:08.898Z,12.40
2019-02-27T02:24:10.342Z,11.77
2019-02-27T02:26:11.188Z,11.90
2019-02-27T02:28:12.099Z,11.10
2019-02-27T02:30:14.911Z,12.07
2019-02-27T02:32:17.370Z,12.33
2019-02-27T02:34:18.496Z,11.83
2019-02-27T02:36:25.096Z,11.13
2019-02-27T02:38:22.065Z,10.60
2019-02-27T02:40:22.892Z,10.67
2019-02-27T02:42:24.689Z,11.07
2019-02-27T02:44:26.280Z,10.93
2019-02-27T02:46:27.126Z,10.37
2019-02-27T02:48:31.117Z,10.03
2019-02-27T02:50:30.913Z,10.93
2019-02-27T02:52:31.775Z,11.10
2019-02-27T02:54:36.432Z,10.97
2019-02-27T02:56:35.362Z,11.73
2019-02-27T02:58:36.218Z,10.60
2019-02-27T03:00:39.026Z,10.90
2019-02-27T03:02:40.077Z,11.17
2019-02-27T03:04:40.905Z,10.90
2019-02-27T03:06:41.750Z,10.97
2019-02-27T03:08:42.617Z,10.80
2019-02-27T03:10:43.828Z,11.40
2019-02-27T03:12:44.769Z,11.10
2019-02-27T03:14:45.602Z,10.70
2019-02-27T03:16:46.420Z,11.63
2019-02-27T03:18:47.276Z,11.33
2019-02-27T03:20:51.877Z,10.87
2019-02-27T03:22:51.106Z,9.77
2019-02-27T03:24:51.957Z,10.17
2019-02-27T03:26:53.243Z,11.20
2019-02-27T03:28:54.208Z,11.00
2019-02-27T03:30:55.053Z,10.60
2019-02-27T03:32:55.915Z,10.67
2019-02-27T03:34:57.028Z,10.50
2019-02-27T03:36:58.103Z,10.83
2019-02-27T03:38:59.418Z,10.47
2019-02-27T03:41:01.255Z,11.00
2019-02-27T03:43:02.090Z,10.87
2019-02-27T03:45:02.926Z,10.17
2019-02-27T03:47:03.752Z,9.70
2019-02-27T03:49:04.727Z,10.23
2019-02-27T03:51:05.649Z,10.70
2019-02-27T03:53:10.844Z,10.30
2019-02-27T03:55:09.233Z,10.27
2019-02-27T03:57:10.071Z,10.57
2019-02-27T03:59:10.890Z,10.67
2019-02-27T04:01:11.753Z,11.03
2019-02-27T04:03:17.125Z,10.50
2019-02-27T04:05:15.582Z,10.83
2019-02-27T04:07:16.413Z,10.90
2019-02-27T04:09:19.816Z,10.87
2019-02-27T04:11:19.997Z,10.43
2019-02-27T04:13:26.654Z,10.20
2019-02-27T04:15:23.929Z,10.03
2019-02-27T04:17:24.762Z,10.33
2019-02-27T04:19:25.621Z,10.00
2019-02-27T04:21:26.455Z,10.80
2019-02-27T04:23:27.538Z,10.30
2019-02-27T04:25:31.082Z,11.07
2019-02-27T04:27:31.392Z,10.73
2019-02-27T04:29:32.245Z,11.03
2019-02-27T04:31:33.324Z,11.00
2019-02-27T04:33:34.417Z,10.60
2019-02-27T04:35:39.493Z,10.97
2019-02-27T04:37:37.992Z,11.30
2019-02-27T04:39:38.885Z,11.33
2019-02-27T04:41:40.048Z,11.53
2019-02-27T04:43:40.908Z,11.30
2019-02-27T04:45:43.901Z,11.00
2019-02-27T04:47:44.782Z,11.43
2019-02-27T04:49:45.630Z,10.00
2019-02-27T04:51:48.113Z,11.30
2019-02-27T04:53:49.465Z,10.73
2019-02-27T04:55:50.632Z,10.93
2019-02-27T04:57:52.152Z,10.17
2019-02-27T04:59:52.976Z,10.73
2019-02-27T05:01:53.825Z,11.07
2019-02-27T05:03:54.715Z,11.10
2019-02-27T05:05:55.605Z,11.53
2019-02-27T05:07:56.444Z,12.00
2019-02-27T05:09:57.293Z,11.53
2019-02-27T05:11:58.137Z,11.60
2019-02-27T05:13:58.964Z,11.30
2019-02-27T05:15:59.804Z,10.97
2019-02-27T05:18:00.668Z,10.60
2019-02-27T05:20:01.815Z,10.70
2019-02-27T05:22:02.956Z,10.93
2019-02-27T05:24:05.149Z,10.53
2019-02-27T05:26:06.568Z,10.07
2019-02-27T05:28:07.504Z,11.07
2019-02-27T05:30:12.053Z,11.23
2019-02-27T05:32:11.080Z,10.43
2019-02-27T05:34:13.599Z,10.87
2019-02-27T05:36:14.688Z,11.50
2019-02-27T05:38:15.512Z,10.90
2019-02-27T05:40:16.352Z,11.53
2019-02-27T05:42:17.201Z,11.30
2019-02-27T05:44:21.423Z,10.87
2019-02-27T05:46:20.780Z,11.60
2019-02-27T05:48:21.651Z,11.57
2019-02-27T05:50:22.514Z,11.40
2019-02-27T05:52:23.373Z,11.73
2019-02-27T05:54:24.447Z,11.43
2019-02-27T05:56:25.333Z,11.97
2019-02-27T05:58:26.164Z,11.27
2019-02-27T06:00:27.000Z,12.00
2019-02-27T06:02:27.829Z,11.63
2019-02-27T06:04:28.681Z,11.17
2019-02-27T06:06:29.513Z,11.90
2019-02-27T06:08:35.131Z,11.03
2019-02-27T06:10:33.433Z,11.10
2019-02-27T06:12:34.637Z,11.10
2019-02-27T06:14:35.473Z,11.40
2019-02-27T06:16:37.268Z,11.33
2019-02-27T06:18:39.066Z,11.17
2019-02-27T06:20:42.005Z,11.47
2019-02-27T06:22:42.996Z,11.40
2019-02-27T06:24:45.555Z,11.67
2019-02-27T06:26:46.577Z,12.00
2019-02-27T06:28:47.424Z,11.83
2019-02-27T06:30:48.294Z,12.30
2019-02-27T06:32:49.117Z,11.57
2019-02-27T06:34:49.956Z,11.63
2019-02-27T06:36:50.813Z,11.17
2019-02-27T06:38:51.649Z,12.63
2019-02-27T06:40:52.769Z,13.80
2019-02-27T06:42:54.409Z,13.03
2019-02-27T06:44:55.468Z,12.17
2019-02-27T06:46:56.325Z,12.23
2019-02-27T06:48:57.157Z,12.70
2019-02-27T06:50:58.242Z,13.07
2019-02-27T06:53:00.758Z,12.23
2019-02-27T06:55:01.877Z,11.67
2019-02-27T06:57:05.345Z,12.80
2019-02-27T06:59:05.468Z,11.83
2019-02-27T07:01:09.184Z,13.80
2019-02-27T07:03:09.053Z,12.77
2019-02-27T07:05:13.311Z,13.10
2019-02-27T07:07:12.660Z,12.70
2019-02-27T07:09:13.836Z,13.33
2019-02-27T07:11:14.697Z,12.63
2019-02-27T07:13:15.545Z,13.20
2019-02-27T07:15:16.389Z,13.77
2019-02-27T07:17:17.493Z,13.17
2019-02-27T07:19:18.625Z,13.70
2019-02-27T07:21:19.472Z,14.13
2019-02-27T07:23:23.603Z,13.30
2019-02-27T07:25:23.352Z,13.20
2019-02-27T07:27:24.172Z,13.03
2019-02-27T07:29:27.455Z,12.97
2019-02-27T07:31:27.769Z,13.90
2019-02-27T07:33:28.627Z,12.00
2019-02-27T07:35:29.464Z,11.27
2019-02-27T07:37:30.641Z,12.00
2019-02-27T07:39:32.797Z,11.70
2019-02-27T07:41:34.253Z,12.33
2019-02-27T07:43:35.120Z,11.80
2019-02-27T07:45:35.969Z,11.67
2019-02-27T07:47:36.825Z,10.87
2019-02-27T07:49:37.829Z,11.07
2019-02-27T07:51:39.038Z,12.37
2019-02-27T07:53:40.152Z,11.53
2019-02-27T07:55:41.301Z,11.80
2019-02-27T07:57:42.152Z,12.47
2019-02-27T07:59:43.320Z,11.90
2019-02-27T08:01:44.312Z,13.23
2019-02-27T08:03:45.835Z,12.77
2019-02-27T08:05:46.809Z,12.37
2019-02-27T08:07:49.149Z,12.63
2019-02-27T08:09:50.522Z,13.17
2019-02-27T08:11:51.666Z,12.33
2019-02-27T08:13:52.504Z,12.23
2019-02-27T08:15:53.341Z,11.10
2019-02-27T08:17:57.606Z,12.67
2019-02-27T08:19:56.932Z,12.10
2019-02-27T08:21:57.780Z,13.23
2019-02-27T08:23:58.630Z,15.20
2019-02-27T08:25:59.452Z,13.73
2019-02-27T08:28:00.296Z,15.00
2019-02-27T08:30:01.138Z,12.87
2019-02-27T08:32:01.978Z,12.07
2019-02-27T08:34:02.908Z,11.43
2019-02-27T08:36:03.869Z,12.43
2019-02-27T08:38:04.761Z,11.70
2019-02-27T08:40:05.709Z,11.80
2019-02-27T08:42:06.641Z,11.07
2019-02-27T08:44:07.568Z,11.60
2019-02-27T08:46:08.423Z,12.00
2019-02-27T08:48:09.285Z,11.67
2019-02-27T08:50:10.137Z,11.97
2019-02-27T08:52:13.074Z,11.10
2019-02-27T08:54:13.741Z,12.23
2019-02-27T08:56:14.602Z,11.47
2019-02-27T08:58:15.437Z,12.20
2019-02-27T09:00:16.389Z,11.40
2019-02-27T09:02:17.225Z,11.33
2019-02-27T09:04:18.336Z,10.17
2019-02-27T09:06:19.178Z,10.23
2019-02-27T09:08:20.017Z,9.50
2019-02-27T09:10:23.336Z,9.43
2019-02-27T09:12:23.612Z,9.80
2019-02-27T09:14:24.476Z,9.83
2019-02-27T09:16:26.114Z,10.20
2019-02-27T09:18:27.568Z,10.33
2019-02-27T09:20:28.421Z,9.30
2019-02-27T09:22:29.328Z,9.70
2019-02-27T09:24:30.268Z,10.17
2019-02-27T09:26:35.771Z,10.60
2019-02-27T09:28:34.100Z,10.13
2019-02-27T09:30:34.957Z,10.10
2019-02-27T09:32:35.793Z,9.57
2019-02-27T09:34:36.637Z,9.80
2019-02-27T09:36:37.917Z,11.03
2019-02-27T09:38:38.765Z,9.97
2019-02-27T09:40:39.731Z,10.50
2019-02-27T09:42:40.756Z,10.30
2019-02-27T09:44:41.980Z,9.70
2019-02-27T09:46:42.816Z,9.33
2019-02-27T09:48:43.649Z,10.50
2019-02-27T09:50:47.586Z,11.07
2019-02-27T09:52:47.264Z,11.93
2019-02-27T09:54:48.112Z,11.70
2019-02-27T09:56:48.940Z,11.07
2019-02-27T09:58:49.789Z,10.50
2019-02-27T10:00:50.900Z,10.93
2019-02-27T10:02:51.737Z,10.67
2019-02-27T10:04:52.597Z,10.97
2019-02-27T10:06:53.429Z,11.13
2019-02-27T10:08:56.502Z,11.03
2019-02-27T10:10:57.116Z,11.90
2019-02-27T10:12:59.843Z,11.93
2019-02-27T10:15:00.836Z,12.23
2019-02-27T10:17:01.677Z,13.80
2019-02-27T10:19:02.523Z,13.40
2019-02-27T10:21:03.356Z,13.47
2019-02-27T10:23:04.308Z,15.57
2019-02-27T10:25:05.146Z,13.33
2019-02-27T10:27:06.332Z,13.33
2019-02-27T10:29:07.280Z,13.83
2019-02-27T10:31:08.141Z,12.90
2019-02-27T10:33:11.171Z,13.63
2019-02-27T10:35:12.020Z,12.33
2019-02-27T10:37:14.569Z,13.70
2019-02-27T10:39:15.621Z,12.07
2019-02-27T10:41:16.473Z,13.33
2019-02-27T10:43:17.308Z,12.93
2019-02-27T10:45:18.162Z,12.67
2019-02-27T10:47:19.004Z,12.27
2019-02-27T10:49:21.843Z,14.60
2019-02-27T10:51:22.629Z,12.40
2019-02-27T10:53:27.181Z,11.48
2019-02-27T10:55:27.102Z,11.05
2019-02-27T10:57:31.419Z,9.43
2019-02-27T10:59:30.941Z,8.93
2019-02-27T11:01:33.239Z,9.20
2019-02-27T11:03:34.552Z,8.45
2019-02-27T11:05:35.426Z,8.95
2019-02-27T11:07:36.281Z,8.48
2019-02-27T11:09:40.842Z,6.78
2019-02-27T11:11:39.888Z,5.90
2019-02-27T11:13:40.738Z,6.42
2019-02-27T11:15:44.035Z,5.83
2019-02-27T11:17:44.355Z,5.40
2019-02-27T11:19:45.207Z,6.53
2019-02-27T11:21:46.057Z,6.57
2019-02-27T11:23:46.917Z,6.08
2019-02-27T11:25:47.752Z,6.35
2019-02-27T11:27:48.593Z,5.30
2019-02-27T11:29:49.447Z,6.15
2019-02-27T11:31:50.276Z,5.37
2019-02-27T11:33:51.526Z,5.55
2019-02-27T11:35:52.795Z,5.17
2019-02-27T11:37:53.832Z,5.28
2019-02-27T11:39:54.680Z,4.45
2019-02-27T11:41:55.542Z,4.58
2019-02-27T11:43:56.376Z,5.00
2019-02-27T11:45:58.694Z,5.47
2019-02-27T11:47:59.593Z,5.92
2019-02-27T11:50:00.456Z,5.80
2019-02-27T11:52:01.573Z,6.87
2019-02-27T11:54:04.230Z,6.55
2019-02-27T11:56:05.609Z,6.80
2019-02-27T11:58:06.602Z,6.10
2019-02-27T12:00:09.432Z,6.70
2019-02-27T12:02:10.342Z,6.65
2019-02-27T12:04:11.255Z,7.08
2019-02-27T12:06:12.158Z,6.70
2019-02-27T12:08:13.119Z,7.30
2019-02-27T12:10:14.020Z,7.33
2019-02-27T12:12:14.918Z,6.92
2019-02-27T12:14:16.159Z,6.95
2019-02-27T12:16:18.310Z,6.67
2019-02-27T12:18:19.549Z,6.87
2019-02-27T12:20:20.565Z,7.23
2019-02-27T12:22:21.396Z,7.50
2019-02-27T12:24:22.302Z,7.00
2019-02-27T12:26:23.169Z,7.12
2019-02-27T12:28:24.491Z,7.07
2019-02-27T12:30:25.383Z,7.20
2019-02-27T12:32:26.367Z,6.65
2019-02-27T12:34:27.204Z,7.00
2019-02-27T12:36:28.097Z,6.67
2019-02-27T12:38:29.273Z,6.93
2019-02-27T12:40:30.197Z,7.05
2019-02-27T12:42:37.121Z,6.60
2019-02-27T12:44:34.585Z,7.23
2019-02-27T12:46:37.059Z,6.63
2019-02-27T12:48:38.082Z,6.93
2019-02-27T12:50:38.999Z,7.03
2019-02-27T12:52:44.386Z,7.20
2019-02-27T12:54:42.647Z,7.30
2019-02-27T12:56:44.547Z,6.70
2019-02-27T12:58:45.738Z,7.40
2019-02-27T13:00:46.644Z,7.10
2019-02-27T13:02:47.677Z,7.27
2019-02-27T13:04:52.469Z,6.58
2019-02-27T13:06:51.472Z,6.80
2019-02-27T13:08:52.873Z,7.07
2019-02-27T13:10:54.421Z,6.50
2019-02-27T13:12:55.305Z,6.73
2019-02-27T13:14:56.296Z,6.13
2019-02-27T13:16:57.418Z,6.27
2019-02-27T13:18:58.319Z,6.30
2019-02-27T13:20:59.178Z,6.03
2019-02-27T13:23:04.073Z,6.17
2019-02-27T13:25:03.110Z,6.20
2019-02-27T13:27:08.786Z,5.57
2019-02-27T13:29:06.989Z,6.08
2019-02-27T13:31:07.840Z,5.70
2019-02-27T13:33:08.715Z,6.00
2019-02-27T13:35:09.548Z,5.70
2019-02-27T13:37:10.713Z,6.20
2019-02-27T13:39:11.572Z,6.03
2019-02-27T13:41:12.420Z,6.13
2019-02-27T13:43:13.270Z,6.60
2019-02-27T13:45:14.460Z,5.95
2019-02-27T13:47:15.399Z,5.93
2019-02-27T13:49:16.254Z,6.20
2019-02-27T13:51:17.103Z,6.03
2019-02-27T13:53:17.908Z,5.60
2019-02-27T13:55:18.785Z,5.80
2019-02-27T13:57:25.054Z,6.30
2019-02-27T13:59:22.712Z,6.08
2019-02-27T14:01:25.249Z,6.67
2019-02-27T14:03:26.450Z,6.37
2019-02-27T14:05:29.307Z,6.17
2019-02-27T14:07:30.053Z,5.83
2019-02-27T14:09:30.922Z,6.30
2019-02-27T14:11:31.870Z,6.33
2019-02-27T14:13:32.748Z,6.40
2019-02-27T14:15:33.918Z,6.73
2019-02-27T14:17:34.765Z,5.80
2019-02-27T14:19:36.622Z,6.50
2019-02-27T14:21:39.571Z,5.97
2019-02-27T14:23:40.472Z,6.10
2019-02-27T14:25:41.352Z,6.20
2019-02-27T14:27:42.206Z,5.85
2019-02-27T14:29:43.061Z,5.90
2019-02-27T14:31:44.192Z,5.80
2019-02-27T14:33:45.355Z,6.33
2019-02-27T14:35:46.521Z,6.17
2019-02-27T14:37:50.129Z,6.30
2019-02-27T14:39:50.600Z,5.80
2019-02-27T14:41:51.772Z,6.53
2019-02-27T14:43:52.839Z,6.47
2019-02-27T14:45:53.782Z,6.00
2019-02-27T14:47:54.671Z,6.33
2019-02-27T14:49:55.577Z,6.40
2019-02-27T14:51:56.485Z,6.10
2019-02-27T14:53:57.431Z,5.70
2019-02-27T14:55:58.624Z,5.80
2019-02-27T14:57:59.715Z,6.50
2019-02-27T15:00:02.519Z,6.23
2019-02-27T15:02:03.552Z,6.58
2019-02-27T15:04:04.491Z,6.47
2019-02-27T15:06:05.509Z,4.25
2019-02-27T15:08:06.549Z,6.35
2019-02-27T15:10:08.045Z,6.10
2019-02-27T15:12:09.132Z,5.90
2019-02-27T15:14:10.046Z,7.10
2019-02-27T15:16:10.940Z,7.50
2019-02-27T15:18:13.959Z,7.22
2019-02-27T15:20:14.786Z,8.27
2019-02-27T15:22:20.372Z,8.87
2019-02-27T15:24:19.517Z,8.83
2019-02-27T15:26:20.742Z,9.13
2019-02-27T15:28:21.760Z,9.03
2019-02-27T15:30:22.806Z,9.20
2019-02-27T15:32:26.917Z,9.43
2019-02-27T15:34:26.931Z,9.13
2019-02-27T15:36:30.238Z,9.20
2019-02-27T15:38:31.668Z,9.43
2019-02-27T15:40:33.033Z,8.93
2019-02-27T15:42:34.371Z,9.13
2019-02-27T15:44:35.309Z,9.10
2019-02-27T15:46:36.197Z,8.67
2019-02-27T15:48:38.125Z,9.13
2019-02-27T15:50:40.235Z,9.23
2019-02-27T15:52:41.457Z,9.07
2019-02-27T15:54:42.424Z,8.70
2019-02-27T15:56:45.491Z,9.13
2019-02-27T15:58:46.341Z,8.90
2019-02-27T16:00:52.156Z,8.73
2019-02-27T16:02:50.269Z,9.07
2019-02-27T16:04:52.186Z,8.87
2019-02-27T16:06:54.075Z,9.60
2019-02-27T16:08:58.277Z,9.83
2019-02-27T16:10:58.058Z,9.27
2019-02-27T16:13:01.031Z,9.43
2019-02-27T16:15:02.203Z,9.57
2019-02-27T16:17:03.107Z,10.33
2019-02-27T16:19:04.436Z,10.20
2019-02-27T16:21:05.348Z,10.90
2019-02-27T16:23:06.413Z,11.60
2019-02-27T16:25:07.372Z,12.73
2019-02-27T16:27:08.279Z,15.07
2019-02-27T16:29:09.191Z,16.77
2019-02-27T16:31:10.183Z,15.70
2019-02-27T16:33:11.586Z,13.73
2019-02-27T16:35:12.812Z,12.30
2019-02-27T16:37:13.751Z,10.90
2019-02-27T16:39:14.648Z,9.00
2019-02-27T16:41:16.386Z,9.33
2019-02-27T16:43:17.511Z,9.33
2019-02-27T16:45:18.617Z,8.80
2019-02-27T16:47:23.603Z,8.60
2019-02-27T16:49:22.712Z,9.27
2019-02-27T16:51:23.614Z,9.93
2019-02-27T16:53:24.956Z,10.47
2019-02-27T16:55:25.864Z,9.07
2019-02-27T16:57:26.911Z,10.07
2019-02-27T16:59:27.845Z,10.63
2019-02-27T17:01:29.514Z,10.30
2019-02-27T17:03:31.296Z,10.33
2019-02-27T17:05:32.240Z,13.00
2019-02-27T17:07:33.141Z,12.47
2019-02-27T17:09:34.105Z,12.93
2019-02-27T17:11:35.385Z,13.37
2019-02-27T17:13:36.246Z,15.48
2019-02-27T17:15:37.164Z,13.97
2019-02-27T17:17:38.060Z,13.27
2019-02-27T17:19:38.892Z,12.67
2019-02-27T17:21:39.741Z,13.47
2019-02-27T17:23:43.752Z,11.70
2019-02-27T17:25:43.436Z,10.97
2019-02-27T17:27:44.277Z,10.97
2019-02-27T17:29:45.138Z,11.23
2019-02-27T17:31:49.387Z,10.40
2019-02-27T17:33:49.175Z,9.87
2019-02-27T17:35:50.041Z,11.13
2019-02-27T17:37:50.884Z,10.37
2019-02-27T17:39:51.736Z,10.90
2019-02-27T17:41:52.560Z,10.90
2019-02-27T17:43:53.680Z,11.17
2019-02-27T17:45:54.613Z,13.90
2019-02-27T17:47:55.563Z,13.87
2019-02-27T17:49:57.460Z,13.23
2019-02-27T17:51:59.097Z,13.27
2019-02-27T17:53:59.938Z,14.00
2019-02-27T17:56:00.840Z,13.83
2019-02-27T17:58:01.689Z,14.70
2019-02-27T18:00:02.957Z,14.03
2019-02-27T18:02:03.802Z,14.17
2019-02-27T18:04:04.649Z,13.97
2019-02-27T18:06:05.541Z,13.67
2019-02-27T18:08:06.653Z,13.73
2019-02-27T18:10:07.493Z,13.40
2019-02-27T18:12:08.356Z,13.30
2019-02-27T18:14:10.146Z,12.73
2019-02-27T18:16:11.456Z,14.73
2019-02-27T18:18:12.563Z,13.47
2019-02-27T18:20:13.411Z,14.03
2019-02-27T18:22:14.816Z,13.37
2019-02-27T18:24:16.118Z,13.27
2019-02-27T18:26:17.038Z,13.03
2019-02-27T18:28:17.895Z,13.37
2019-02-27T18:30:19.560Z,13.20
2019-02-27T18:32:20.716Z,14.37
2019-02-27T18:34:21.826Z,12.63
2019-02-27T18:36:23.408Z,13.10
2019-02-27T18:38:27.606Z,14.20
2019-02-27T18:40:27.339Z,14.50
2019-02-27T18:42:28.230Z,14.53
2019-02-27T18:44:29.083Z,14.70
2019-02-27T18:46:29.918Z,15.90
2019-02-27T18:48:30.777Z,16.93
2019-02-27T18:50:31.625Z,18.20
2019-02-27T18:52:32.495Z,18.40
2019-02-27T18:54:33.328Z,17.80
2019-02-27T18:56:36.830Z,18.30
2019-02-27T18:58:37.194Z,17.33
2019-02-27T19:00:38.068Z,17.37
2019-02-27T19:02:38.896Z,14.77
2019-02-27T19:04:39.748Z,16.73
2019-02-27T19:06:43.132Z,17.63
2019-02-27T19:08:43.349Z,17.80
2019-02-27T19:10:44.210Z,16.87
2019-02-27T19:12:45.060Z,17.40
2019-02-27T19:14:45.937Z,17.90
2019-02-27T19:16:46.788Z,18.27
2019-02-27T19:18:47.708Z,17.20
2019-02-27T19:20:48.556Z,16.37
2019-02-27T19:22:49.441Z,14.07
2019-02-27T19:24:50.429Z,16.00
2019-02-27T19:26:51.700Z,13.60
2019-02-27T19:28:52.947Z,13.50
2019-02-27T19:30:53.853Z,13.97
2019-02-27T19:32:58.323Z,12.33
2019-02-27T19:34:57.700Z,12.33
2019-02-27T19:36:58.713Z,12.60
2019-02-27T19:38:59.668Z,13.13
2019-02-27T19:41:01.224Z,14.77
2019-02-27T19:43:03.267Z,14.07
2019-02-27T19:45:05.183Z,13.33
2019-02-27T19:47:06.104Z,13.33
2019-02-27T19:49:06.960Z,12.50
2019-02-27T19:51:07.812Z,14.27
2019-02-27T19:53:08.659Z,13.80
2019-02-27T19:55:09.538Z,13.87
2019-02-27T19:57:10.420Z,12.70
2019-02-27T19:59:11.237Z,13.07
2019-02-27T20:01:12.127Z,12.77
2019-02-27T20:03:13.648Z,12.27
2019-02-27T20:05:16.503Z,12.20
2019-02-27T20:07:17.258Z,11.87
2019-02-27T20:09:20.146Z,11.90
2019-02-27T20:11:20.984Z,13.20
2019-02-27T20:13:24.654Z,12.73
2019-02-27T20:15:24.615Z,13.27
2019-02-27T20:17:30.112Z,13.10
2019-02-27T20:19:29.247Z,13.20
2019-02-27T20:21:30.216Z,13.37
2019-02-27T20:23:31.308Z,13.17
2019-02-27T20:25:32.997Z,13.13
2019-02-27T20:27:33.869Z,13.60
2019-02-27T20:29:39.477Z,14.63
2019-02-27T20:31:37.560Z,13.17
2019-02-27T20:33:38.686Z,14.80
2019-02-27T20:35:39.581Z,16.97
2019-02-27T20:37:41.385Z,16.30
2019-02-27T20:39:42.487Z,18.17
2019-02-27T20:41:44.115Z,17.27
2019-02-27T20:43:45.189Z,17.60
2019-02-27T20:45:46.035Z,18.10
2019-02-27T20:47:46.968Z,17.73
2019-02-27T20:49:48.038Z,16.73
2019-02-27T20:51:49.116Z,17.37
2019-02-27T20:53:55.110Z,16.80
2019-02-27T20:55:52.770Z,17.00
2019-02-27T20:57:53.644Z,17.57
2019-02-27T21:00:00.643Z,16.80
2019-02-27T21:01:57.480Z,17.80
2019-02-27T21:04:02.316Z,17.07
2019-02-27T21:06:01.420Z,15.93
2019-02-27T21:08:02.657Z,15.87
2019-02-27T21:10:03.657Z,14.63
2019-02-27T21:12:07.084Z,15.90
2019-02-27T21:14:07.321Z,16.63
2019-02-27T21:16:10.171Z,17.40
2019-02-27T21:18:11.177Z,17.87
2019-02-27T21:20:12.174Z,18.80
2019-02-27T21:22:13.140Z,17.27
2019-02-27T21:24:14.072Z,17.47
2019-02-27T21:26:14.991Z,17.67
2019-02-27T21:28:20.988Z,18.47
2019-02-27T21:30:19.094Z,16.63
2019-02-27T21:32:20.142Z,15.70
2019-02-27T21:34:21.048Z,15.60
2019-02-27T21:36:22.033Z,15.00
2019-02-27T21:38:22.950Z,15.97
2019-02-27T21:40:23.925Z,14.47
2019-02-27T21:42:25.086Z,16.20
2019-02-27T21:44:29.192Z,15.43
2019-02-27T21:46:29.058Z,15.00
2019-02-27T21:48:30.051Z,15.20
2019-02-27T21:50:30.935Z,15.97
2019-02-27T21:52:31.957Z,16.13
2019-02-27T21:54:38.403Z,16.00
2019-02-27T21:56:35.622Z,16.93
2019-02-27T21:58:36.500Z,16.23
2019-02-27T22:00:37.364Z,15.27
2019-02-27T22:02:38.356Z,15.50
2019-02-27T22:04:41.266Z,14.40
2019-02-27T22:06:41.942Z,14.63
2019-02-27T22:08:42.900Z,17.00
2019-02-27T22:10:43.733Z,15.93
2019-02-27T22:12:44.578Z,17.93
2019-02-27T22:14:45.419Z,18.07
2019-02-27T22:16:46.252Z,18.80
2019-02-27T22:18:47.876Z,18.93
2019-02-27T22:20:48.917Z,17.63
2019-02-27T22:22:49.797Z,15.20
2019-02-27T22:24:52.260Z,14.57
2019-02-27T22:26:53.666Z,12.90
2019-02-27T22:28:55.162Z,13.10
2019-02-27T22:30:56.176Z,13.70
2019-02-27T22:32:57.043Z,13.13
2019-02-27T22:34:59.274Z,15.37
2019-02-27T22:37:01.093Z,15.07
2019-02-27T22:39:02.087Z,15.13
2019-02-27T22:41:02.964Z,14.30
2019-02-27T22:43:03.888Z,14.33
2019-02-27T22:45:04.959Z,14.10
2019-02-27T22:47:06.049Z,13.97
2019-02-27T22:49:06.934Z,13.67
2019-02-27T22:51:07.969Z,14.67
2019-02-27T22:53:09.242Z,14.07
2019-02-27T22:55:10.891Z,14.27
2019-02-27T22:57:12.250Z,15.23
2019-02-27T22:59:13.157Z,16.53
2019-02-27T23:01:23.468Z,16.33
2019-02-27T23:03:24.798Z,15.57
2019-02-27T23:05:26.205Z,16.03
2019-02-27T23:07:27.100Z,15.73
2019-02-27T23:09:28.473Z,14.73
2019-02-27T23:11:29.378Z,15.83
2019-02-27T23:13:30.266Z,14.83
2019-02-27T23:15:31.264Z,15.20
2019-02-27T23:17:32.559Z,15.07
2019-02-27T23:19:33.831Z,15.93
2019-02-27T23:21:34.745Z,16.93
2019-02-27T23:23:36.771Z,16.60
2019-02-27T23:25:38.451Z,16.30
2019-02-27T23:27:39.329Z,17.23
2019-02-27T23:29:40.633Z,17.50
2019-02-27T23:31:41.877Z,17.43
2019-02-27T23:33:43.016Z,17.20
2019-02-27T23:35:43.860Z,16.77
2019-02-27T23:37:44.712Z,17.40
2019-02-27T23:39:45.569Z,16.87
2019-02-27T23:41:46.425Z,17.83
2019-02-27T23:43:47.268Z,18.13
2019-02-27T23:45:48.272Z,18.27
2019-02-27T23:47:49.150Z,18.03
2019-02-27T23:49:50.169Z,16.50
2019-02-27T23:51:51.156Z,17.10
2019-02-27T23:53:52.078Z,18.37
2019-02-27T23:55:53.441Z,17.50
2019-02-27T23:57:57.352Z,16.27
2019-02-27T23:59:57.151Z,13.97
